Time;durP1;ratioP1;P1;durP2;ratioP2;P2;SDS_P1;SDS_P2;PMS_P1;PMS_P2;Temp;Humidity;BMP_temperature;BMP_pressure;BME280_temperature;BME280_humidity;BME280_pressure;Samples;Min_cycle;Max_cycle;Signal;HPM_P1;HPM_P2
2021/09/08 00:01:05;;;;;;;4.80;3.42;;;;;;;;;;5024402;28;20164;-59
2021/09/08 00:03:30;;;;;;;7.35;2.78;;;;;;;;;;5032096;28;20049;-59
2021/09/08 00:05:57;;;;;;;4.20;3.03;;;;;;;;;;5031678;28;20033;-58
2021/09/08 00:08:23;;;;;;;6.85;3.15;;;;;;;;;;5031019;28;20037;-60
2021/09/08 00:10:48;;;;;;;4.63;3.15;;;;;;;;;;5031132;28;20044;-58
2021/09/08 00:13:14;;;;;;;28.42;3.78;;;;;;;;;;5030979;28;20037;-58
2021/09/08 00:15:39;;;;;;;3.72;2.90;;;;;;;;;;5031878;28;20029;-58
2021/09/08 00:18:05;;;;;;;4.07;2.88;;;;;;;;;;5029895;28;20033;-58
2021/09/08 00:20:31;;;;;;;7.22;3.55;;;;;;;;;;5031987;28;20032;-58
2021/09/08 00:22:57;;;;;;;4.43;3.20;;;;;;;;;;5031882;28;20030;-58
2021/09/08 00:25:22;;;;;;;4.30;2.92;;;;;;;;;;5031609;28;20428;-58
2021/09/08 00:27:48;;;;;;;5.15;3.55;;;;;;;;;;5031639;28;20034;-58
2021/09/08 00:30:13;;;;;;;4.75;3.50;;;;;;;;;;5030972;28;20124;-58
2021/09/08 00:32:40;;;;;;;6.07;3.75;;;;;;;;;;5031454;28;20033;-58
2021/09/08 00:35:06;;;;;;;9.52;4.78;;;;;;;;;;5031130;28;20059;-58
2021/09/08 00:37:32;;;;;;;6.90;3.75;;;;;;;;;;5030035;28;20088;-58
2021/09/08 00:39:57;;;;;;;7.88;4.00;;;;;;;;;;5030761;28;20396;-58
2021/09/08 00:42:22;;;;;;;4.32;3.42;;;;;;;;;;5031799;28;20564;-58
2021/09/08 00:44:48;;;;;;;3.95;2.95;;;;;;;;;;5030774;28;20124;-57
2021/09/08 00:47:16;;;;;;;5.20;3.85;;;;;;;;;;5031388;28;20112;-58
2021/09/08 00:49:42;;;;;;;6.72;3.38;;;;;;;;;;5030405;28;20048;-58
2021/09/08 00:52:10;;;;;;;4.80;3.22;;;;;;;;;;5029419;28;20740;-57
2021/09/08 00:54:36;;;;;;;3.17;2.13;;;;;;;;;;5029334;28;20111;-58
2021/09/08 00:57:04;;;;;;;5.00;3.50;;;;;;;;;;5031328;28;20458;-58
2021/09/08 00:59:30;;;;;;;6.00;3.83;;;;;;;;;;5030410;28;20041;-58
2021/09/08 01:01:55;;;;;;;4.88;3.45;;;;;;;;;;5031171;28;20417;-58
2021/09/08 01:04:20;;;;;;;5.18;4.10;;;;;;;;;;5031014;28;20037;-58
2021/09/08 01:06:46;;;;;;;5.78;3.88;;;;;;;;;;5031245;28;20063;-58
2021/09/08 01:09:12;;;;;;;4.90;3.80;;;;;;;;;;5030541;28;20049;-58
2021/09/08 01:11:37;;;;;;;4.15;3.25;;;;;;;;;;5030577;28;20523;-58
2021/09/08 01:14:03;;;;;;;3.55;2.63;;;;;;;;;;5030906;28;20037;-58
2021/09/08 01:16:28;;;;;;;4.93;3.28;;;;;;;;;;5030584;28;20040;-58
2021/09/08 01:18:54;;;;;;;6.47;3.42;;;;;;;;;;5030984;28;20029;-58
2021/09/08 01:21:19;;;;;;;5.93;3.47;;;;;;;;;;5030725;28;20052;-58
2021/09/08 01:23:45;;;;;;;5.43;4.35;;;;;;;;;;5029971;28;20043;-59
2021/09/08 01:26:11;;;;;;;4.72;3.55;;;;;;;;;;5030152;28;20037;-57
2021/09/08 01:28:36;;;;;;;3.63;2.40;;;;;;;;;;5030574;28;20124;-57
2021/09/08 01:31:03;;;;;;;4.40;3.10;;;;;;;;;;5030401;28;20043;-57
2021/09/08 01:33:28;;;;;;;5.22;3.25;;;;;;;;;;5031014;28;20128;-57
2021/09/08 01:35:54;;;;;;;4.90;4.07;;;;;;;;;;5028728;28;20587;-57
2021/09/08 01:38:19;;;;;;;14.60;3.90;;;;;;;;;;5030739;28;20048;-57
2021/09/08 01:40:45;;;;;;;5.50;3.53;;;;;;;;;;5030532;28;20033;-57
2021/09/08 01:43:10;;;;;;;4.72;3.70;;;;;;;;;;5027681;28;20041;-57
2021/09/08 01:45:40;;;;;;;4.70;3.40;;;;;;;;;;5030166;28;20111;-57
2021/09/08 01:48:05;;;;;;;4.35;3.03;;;;;;;;;;5030201;28;20622;-57
2021/09/08 01:50:31;;;;;;;5.97;4.25;;;;;;;;;;5033254;28;20036;-57
2021/09/08 01:52:56;;;;;;;4.70;3.80;;;;;;;;;;5028403;28;20506;-58
2021/09/08 01:55:21;;;;;;;4.63;3.22;;;;;;;;;;5030148;28;20030;-58
2021/09/08 01:57:47;;;;;;;4.65;3.20;;;;;;;;;;5030004;28;20112;-58
2021/09/08 02:00:14;;;;;;;3.80;2.65;;;;;;;;;;5029618;28;20029;-58
2021/09/08 02:02:40;;;;;;;5.47;3.88;;;;;;;;;;5029180;28;20120;-59
2021/09/08 02:05:06;;;;;;;4.88;3.75;;;;;;;;;;5029652;28;20030;-58
2021/09/08 02:07:31;;;;;;;4.20;3.30;;;;;;;;;;5030423;28;20351;-58
2021/09/08 02:09:57;;;;;;;4.45;3.40;;;;;;;;;;5025172;28;20044;-59
2021/09/08 02:12:23;;;;;;;6.55;4.32;;;;;;;;;;5026951;28;20040;-59
2021/09/08 02:14:48;;;;;;;5.55;3.75;;;;;;;;;;5028542;28;20030;-59
2021/09/08 02:17:14;;;;;;;5.13;3.92;;;;;;;;;;5028067;28;20122;-59
2021/09/08 02:19:39;;;;;;;6.05;4.05;;;;;;;;;;5028985;28;20037;-59
2021/09/08 02:22:05;;;;;;;6.85;3.92;;;;;;;;;;5028438;28;20180;-59
2021/09/08 02:24:30;;;;;;;6.13;3.95;;;;;;;;;;5023569;28;20124;-59
2021/09/08 02:26:56;;;;;;;5.32;3.65;;;;;;;;;;5027932;28;20037;-59
2021/09/08 02:29:21;;;;;;;4.18;3.22;;;;;;;;;;5029134;28;20025;-58
2021/09/08 02:31:46;;;;;;;4.75;3.45;;;;;;;;;;5027873;28;20686;-59
2021/09/08 02:34:12;;;;;;;4.07;3.20;;;;;;;;;;5029064;28;20048;-58
2021/09/08 02:36:37;;;;;;;5.80;3.60;;;;;;;;;;5021872;28;20665;-58
2021/09/08 02:39:03;;;;;;;4.63;3.15;;;;;;;;;;5030146;28;20096;-58
2021/09/08 02:41:28;;;;;;;7.25;4.05;;;;;;;;;;5032299;28;20116;-58
2021/09/08 02:43:54;;;;;;;5.35;2.85;;;;;;;;;;5028771;28;20032;-58
2021/09/08 02:46:20;;;;;;;5.30;3.33;;;;;;;;;;5024174;28;20033;-58
2021/09/08 02:48:45;;;;;;;5.55;3.70;;;;;;;;;;5019550;28;20477;-58
2021/09/08 02:51:11;;;;;;;5.22;3.33;;;;;;;;;;5027936;28;20036;-58
2021/09/08 02:53:36;;;;;;;4.90;3.58;;;;;;;;;;5026576;28;20040;-58
2021/09/08 02:56:03;;;;;;;6.13;3.35;;;;;;;;;;5029051;28;20064;-58
2021/09/08 02:58:29;;;;;;;6.32;3.78;;;;;;;;;;5028458;28;20068;-59
2021/09/08 03:00:54;;;;;;;4.15;3.10;;;;;;;;;;5028392;28;20053;-59
2021/09/08 03:03:20;;;;;;;4.05;3.25;;;;;;;;;;5031003;28;20057;-58
2021/09/08 03:05:47;;;;;;;6.07;4.07;;;;;;;;;;5032611;28;20494;-59
2021/09/08 03:08:12;;;;;;;6.93;3.45;;;;;;;;;;5033208;28;20037;-59
2021/09/08 03:10:38;;;;;;;4.68;3.28;;;;;;;;;;5032906;28;20044;-58
2021/09/08 03:13:05;;;;;;;4.25;3.03;;;;;;;;;;5032260;28;20567;-59
2021/09/08 03:15:31;;;;;;;5.25;3.85;;;;;;;;;;5031405;28;20155;-57
2021/09/08 03:17:56;;;;;;;6.57;4.25;;;;;;;;;;5030728;28;20116;-57
2021/09/08 03:20:22;;;;;;;4.68;4.03;;;;;;;;;;5033315;28;20029;-58
2021/09/08 03:22:47;;;;;;;4.90;3.50;;;;;;;;;;5015545;28;20029;-59
2021/09/08 03:25:13;;;;;;;4.70;3.70;;;;;;;;;;5032775;28;20045;-59
2021/09/08 03:27:40;;;;;;;5.03;3.72;;;;;;;;;;5032814;28;20030;-59
2021/09/08 03:30:07;;;;;;;6.43;3.80;;;;;;;;;;5031471;28;20065;-59
2021/09/08 03:32:32;;;;;;;4.70;3.65;;;;;;;;;;5032545;28;20447;-59
2021/09/08 03:34:58;;;;;;;4.88;3.38;;;;;;;;;;5032661;28;20037;-58
2021/09/08 03:37:23;;;;;;;5.72;4.03;;;;;;;;;;5032372;28;20045;-58
2021/09/08 03:39:51;;;;;;;6.45;4.03;;;;;;;;;;5031029;28;20060;-58
2021/09/08 03:42:17;;;;;;;5.22;3.88;;;;;;;;;;5032818;28;20048;-59
2021/09/08 03:44:42;;;;;;;4.32;3.25;;;;;;;;;;5032022;28;20037;-58
2021/09/08 03:47:07;;;;;;;5.60;3.72;;;;;;;;;;5031227;28;20044;-58
2021/09/08 03:49:33;;;;;;;4.88;2.67;;;;;;;;;;5032126;28;20112;-57
2021/09/08 03:51:58;;;;;;;6.13;4.28;;;;;;;;;;5032159;28;20137;-58
2021/09/08 03:54:24;;;;;;;5.18;3.72;;;;;;;;;;5031401;28;20037;-58
2021/09/08 03:56:49;;;;;;;7.45;4.05;;;;;;;;;;5032227;28;20029;-57
2021/09/08 03:59:14;;;;;;;6.22;3.90;;;;;;;;;;5032141;28;20052;-58
2021/09/08 04:01:40;;;;;;;7.38;4.82;;;;;;;;;;5032433;28;20150;-59
2021/09/08 04:04:05;;;;;;;3.45;2.83;;;;;;;;;;5032275;28;20026;-57
2021/09/08 04:06:31;;;;;;;4.05;3.15;;;;;;;;;;5031751;28;20366;-57
2021/09/08 04:08:56;;;;;;;5.72;3.35;;;;;;;;;;5031465;28;20037;-62
2021/09/08 04:11:21;;;;;;;5.35;4.07;;;;;;;;;;5032597;28;20041;-58
2021/09/08 04:13:47;;;;;;;4.22;2.70;;;;;;;;;;5031167;28;20124;-58
2021/09/08 04:16:12;;;;;;;4.82;3.13;;;;;;;;;;5029534;28;20048;-58
2021/09/08 04:18:37;;;;;;;7.80;4.35;;;;;;;;;;5031878;28;20469;-58
2021/09/08 04:21:03;;;;;;;7.13;3.42;;;;;;;;;;5031370;28;20477;-58
2021/09/08 04:23:28;;;;;;;6.60;3.55;;;;;;;;;;5030995;28;20040;-58
2021/09/08 04:25:54;;;;;;;5.82;3.10;;;;;;;;;;5031156;28;20051;-59
2021/09/08 04:28:19;;;;;;;4.85;4.00;;;;;;;;;;5030163;28;20048;-59
2021/09/08 04:30:44;;;;;;;3.78;2.78;;;;;;;;;;5024823;28;20128;-59
2021/09/08 04:33:10;;;;;;;6.75;4.20;;;;;;;;;;5031283;28;20116;-59
2021/09/08 04:35:36;;;;;;;9.10;3.83;;;;;;;;;;5031775;28;20112;-59
2021/09/08 04:38:01;;;;;;;4.18;3.33;;;;;;;;;;5031550;28;20450;-59
2021/09/08 04:40:26;;;;;;;5.70;3.83;;;;;;;;;;5031897;28;20061;-59
2021/09/08 04:42:52;;;;;;;5.43;4.03;;;;;;;;;;5030951;28;20348;-59
2021/09/08 04:45:17;;;;;;;4.43;3.63;;;;;;;;;;5030062;28;20435;-57
2021/09/08 04:47:43;;;;;;;8.65;4.47;;;;;;;;;;5031673;28;20041;-58
2021/09/08 04:50:08;;;;;;;4.75;4.10;;;;;;;;;;5031072;28;20018;-59
2021/09/08 04:52:35;;;;;;;6.38;4.20;;;;;;;;;;5031063;28;20037;-58
2021/09/08 04:55:02;;;;;;;4.88;3.28;;;;;;;;;;5030969;28;20029;-58
2021/09/08 04:57:27;;;;;;;7.53;5.15;;;;;;;;;;5030912;28;20075;-58
2021/09/08 04:59:53;;;;;;;6.03;4.20;;;;;;;;;;5030293;28;20036;-58
2021/09/08 05:02:18;;;;;;;6.78;4.50;;;;;;;;;;5030323;28;20037;-59
2021/09/08 05:04:43;;;;;;;4.00;3.25;;;;;;;;;;5029004;28;20037;-59
2021/09/08 05:07:09;;;;;;;6.63;3.90;;;;;;;;;;5031075;28;20533;-60
2021/09/08 05:09:35;;;;;;;5.15;3.80;;;;;;;;;;5031239;28;20029;-59
2021/09/08 05:12:00;;;;;;;5.65;3.42;;;;;;;;;;5030272;28;20044;-59
2021/09/08 05:14:26;;;;;;;4.82;3.47;;;;;;;;;;5031123;28;20026;-57
2021/09/08 05:16:51;;;;;;;6.40;3.42;;;;;;;;;;5031044;28;20371;-59
2021/09/08 05:19:17;;;;;;;7.63;4.50;;;;;;;;;;5031246;28;20029;-59
2021/09/08 05:21:42;;;;;;;4.60;3.15;;;;;;;;;;5030231;28;20040;-61
2021/09/08 05:24:08;;;;;;;6.07;4.25;;;;;;;;;;5030968;28;20029;-57
2021/09/08 05:26:33;;;;;;;6.20;4.40;;;;;;;;;;5029543;28;20171;-59
2021/09/08 05:28:58;;;;;;;6.05;3.88;;;;;;;;;;5029697;28;20053;-59
2021/09/08 05:31:24;;;;;;;6.03;3.20;;;;;;;;;;5030661;28;20048;-59
2021/09/08 05:33:49;;;;;;;6.40;3.60;;;;;;;;;;5022006;28;20045;-59
2021/09/08 05:36:15;;;;;;;5.40;4.07;;;;;;;;;;5030737;28;20457;-57
2021/09/08 05:38:42;;;;;;;8.52;4.30;;;;;;;;;;5029492;28;20021;-59
2021/09/08 05:41:10;;;;;;;5.82;4.50;;;;;;;;;;5030549;28;20108;-59
2021/09/08 05:43:36;;;;;;;5.70;3.92;;;;;;;;;;5029712;28;20112;-57
2021/09/08 05:46:02;;;;;;;5.57;3.83;;;;;;;;;;5029804;28;20178;-57
2021/09/08 05:48:28;;;;;;;5.22;3.78;;;;;;;;;;5029170;28;20039;-57
2021/09/08 05:50:53;;;;;;;8.00;4.50;;;;;;;;;;5026165;28;20041;-57
2021/09/08 05:53:19;;;;;;;10.50;5.40;;;;;;;;;;5027881;28;20394;-57
2021/09/08 05:55:44;;;;;;;6.32;4.13;;;;;;;;;;5029857;28;20033;-57
2021/09/08 05:58:09;;;;;;;4.88;4.03;;;;;;;;;;5029517;28;20463;-57
2021/09/08 06:00:35;;;;;;;5.63;3.85;;;;;;;;;;5030244;28;20092;-56
2021/09/08 06:03:00;;;;;;;5.47;3.60;;;;;;;;;;5029087;28;20037;-57
2021/09/08 06:05:26;;;;;;;5.43;3.63;;;;;;;;;;5030268;28;20075;-57
2021/09/08 06:07:51;;;;;;;5.53;3.75;;;;;;;;;;5027695;28;20528;-57
2021/09/08 06:10:20;;;;;;;7.75;4.75;;;;;;;;;;5028394;28;20021;-57
2021/09/08 06:12:48;;;;;;;6.53;3.95;;;;;;;;;;5029151;28;20030;-57
2021/09/08 06:15:14;;;;;;;5.55;3.63;;;;;;;;;;5029495;28;20036;-57
2021/09/08 06:17:41;;;;;;;10.98;3.70;;;;;;;;;;5027150;28;20059;-58
2021/09/08 06:20:07;;;;;;;5.85;3.75;;;;;;;;;;5027983;28;20025;-57
2021/09/08 06:22:33;;;;;;;7.65;4.75;;;;;;;;;;5023294;28;20115;-58
2021/09/08 06:24:59;;;;;;;5.05;3.90;;;;;;;;;;5027306;28;20021;-57
2021/09/08 06:27:24;;;;;;;8.57;4.88;;;;;;;;;;5027034;28;20382;-58
2021/09/08 06:29:49;;;;;;;7.68;3.60;;;;;;;;;;5027264;28;20044;-58
2021/09/08 06:32:15;;;;;;;5.72;3.70;;;;;;;;;;5025502;28;20041;-58
2021/09/08 06:34:44;;;;;;;8.88;4.93;;;;;;;;;;5028449;28;20041;-58
2021/09/08 06:37:10;;;;;;;7.45;4.28;;;;;;;;;;5027892;28;20435;-57
2021/09/08 06:39:36;;;;;;;5.80;4.07;;;;;;;;;;5028286;28;20072;-57
2021/09/08 06:42:01;;;;;;;6.25;3.78;;;;;;;;;;5025354;28;20041;-57
2021/09/08 06:44:27;;;;;;;4.50;3.90;;;;;;;;;;5025985;28;20091;-58
2021/09/08 06:46:52;;;;;;;5.68;3.78;;;;;;;;;;5026788;28;20037;-57
2021/09/08 06:49:19;;;;;;;6.20;3.65;;;;;;;;;;5025386;28;20136;-57
2021/09/08 06:51:44;;;;;;;7.65;4.22;;;;;;;;;;5022738;28;20556;-58
2021/09/08 06:54:10;;;;;;;6.70;4.43;;;;;;;;;;5024711;28;20026;-57
2021/09/08 06:56:35;;;;;;;6.70;3.90;;;;;;;;;;5027802;28;20044;-58
2021/09/08 06:59:01;;;;;;;8.20;3.75;;;;;;;;;;5026409;28;20052;-57
2021/09/08 07:01:26;;;;;;;4.78;3.38;;;;;;;;;;5028476;28;20397;-58
2021/09/08 07:03:51;;;;;;;5.28;3.65;;;;;;;;;;5028554;28;20033;-58
2021/09/08 07:06:20;;;;;;;4.30;3.63;;;;;;;;;;5027440;28;20091;-58
2021/09/08 07:08:46;;;;;;;5.43;3.85;;;;;;;;;;5028224;28;20124;-58
2021/09/08 07:11:11;;;;;;;9.40;4.25;;;;;;;;;;5028839;28;20117;-58
2021/09/08 07:13:36;;;;;;;4.22;3.45;;;;;;;;;;5028479;28;20056;-58
2021/09/08 07:16:02;;;;;;;4.85;3.85;;;;;;;;;;5028777;28;20148;-58
2021/09/08 07:18:27;;;;;;;5.40;3.15;;;;;;;;;;5029410;28;20037;-58
2021/09/08 07:20:53;;;;;;;6.78;3.38;;;;;;;;;;5029129;28;20061;-58
2021/09/08 07:23:18;;;;;;;5.65;3.95;;;;;;;;;;5028940;28;20455;-57
2021/09/08 07:25:44;;;;;;;5.32;3.97;;;;;;;;;;5029273;28;20516;-58
2021/09/08 07:28:09;;;;;;;7.70;4.22;;;;;;;;;;5019452;28;20030;-58
2021/09/08 07:30:34;;;;;;;6.25;4.47;;;;;;;;;;5028890;28;20179;-58
2021/09/08 07:33:00;;;;;;;9.70;4.80;;;;;;;;;;5027321;28;20052;-58
2021/09/08 07:35:25;;;;;;;8.80;4.15;;;;;;;;;;5023398;28;20030;-58
2021/09/08 07:37:51;;;;;;;5.20;3.42;;;;;;;;;;5023426;28;20034;-57
2021/09/08 07:40:18;;;;;;;7.65;4.68;;;;;;;;;;5025202;28;20041;-58
2021/09/08 07:42:44;;;;;;;9.55;4.90;;;;;;;;;;5025145;28;20044;-58
2021/09/08 07:45:09;;;;;;;4.90;4.07;;;;;;;;;;5026623;28;20021;-58
2021/09/08 07:47:35;;;;;;;6.82;4.20;;;;;;;;;;5025244;28;20533;-58
2021/09/08 07:50:01;;;;;;;5.55;4.40;;;;;;;;;;5022453;28;20041;-58
2021/09/08 07:52:26;;;;;;;5.80;3.90;;;;;;;;;;5024173;28;20045;-58
2021/09/08 07:54:52;;;;;;;8.95;3.55;;;;;;;;;;5024168;28;20041;-58
2021/09/08 07:57:17;;;;;;;6.55;4.78;;;;;;;;;;5028981;28;20805;-58
2021/09/08 07:59:42;;;;;;;6.82;4.85;;;;;;;;;;5030394;28;20025;-58
2021/09/08 08:02:08;;;;;;;4.85;4.28;;;;;;;;;;5028128;28;20088;-58
2021/09/08 08:04:33;;;;;;;8.82;5.35;;;;;;;;;;5030819;28;20029;-58
2021/09/08 08:06:58;;;;;;;7.50;4.90;;;;;;;;;;5029997;28;20116;-58
2021/09/08 08:09:24;;;;;;;5.40;4.30;;;;;;;;;;5031350;28;20073;-58
2021/09/08 08:11:49;;;;;;;5.82;5.10;;;;;;;;;;5032060;28;20468;-58
2021/09/08 08:14:16;;;;;;;6.85;4.10;;;;;;;;;;5028787;28;20037;-59
2021/09/08 08:16:42;;;;;;;6.38;5.13;;;;;;;;;;5028385;28;20029;-58
2021/09/08 08:19:07;;;;;;;6.18;4.85;;;;;;;;;;5031652;28;20041;-58
2021/09/08 08:21:34;;;;;;;5.05;4.53;;;;;;;;;;5031099;28;20466;-58
2021/09/08 08:24:00;;;;;;;6.50;4.78;;;;;;;;;;5026538;28;20037;-58
2021/09/08 08:26:25;;;;;;;7.45;5.63;;;;;;;;;;5029594;28;20037;-58
2021/09/08 08:28:51;;;;;;;4.28;3.58;;;;;;;;;;5030516;28;20083;-58
2021/09/08 08:31:18;;;;;;;5.75;4.85;;;;;;;;;;5031572;28;20042;-58
2021/09/08 08:33:46;;;;;;;6.05;5.15;;;;;;;;;;5031196;28;20048;-58
2021/09/08 08:36:11;;;;;;;6.00;3.88;;;;;;;;;;5031860;28;20033;-58
2021/09/08 08:38:37;;;;;;;5.45;3.95;;;;;;;;;;5031115;28;21011;-58
2021/09/08 08:41:02;;;;;;;4.65;4.07;;;;;;;;;;5027837;28;20441;-59
2021/09/08 08:43:28;;;;;;;5.50;4.97;;;;;;;;;;5025669;28;20026;-59
2021/09/08 08:45:54;;;;;;;5.15;4.63;;;;;;;;;;5025904;28;20037;-58
2021/09/08 08:48:20;;;;;;;9.07;4.85;;;;;;;;;;5029488;28;20033;-58
2021/09/08 08:50:45;;;;;;;5.60;4.40;;;;;;;;;;5030116;28;20103;-59
2021/09/08 08:53:10;;;;;;;7.45;5.38;;;;;;;;;;5030858;28;20037;-58
2021/09/08 08:55:36;;;;;;;9.63;5.25;;;;;;;;;;5031306;28;20048;-59
2021/09/08 08:58:02;;;;;;;5.50;4.90;;;;;;;;;;5030830;28;20041;-59
2021/09/08 09:00:27;;;;;;;4.93;4.43;;;;;;;;;;5029516;28;20556;-58
2021/09/08 09:02:53;;;;;;;5.75;5.10;;;;;;;;;;5027001;28;20477;-58
2021/09/08 09:05:39;;;;;;;5.55;4.20;;;;;;;;;;5030174;28;20069;-58
2021/09/08 09:08:07;;;;;;;5.53;4.90;;;;;;;;;;5030564;28;20477;-59
2021/09/08 09:10:34;;;;;;;6.78;5.15;;;;;;;;;;5029853;28;20033;-58
2021/09/08 09:13:00;;;;;;;5.97;4.80;;;;;;;;;;5027091;28;20033;-59
2021/09/08 09:15:26;;;;;;;4.38;3.97;;;;;;;;;;5028960;28;20029;-59
2021/09/08 09:17:52;;;;;;;5.82;4.43;;;;;;;;;;5029828;28;20525;-59
2021/09/08 09:20:29;;;;;;;5.97;5.05;;;;;;;;;;5028236;28;20065;-59
2021/09/08 09:22:58;;;;;;;6.35;4.90;;;;;;;;;;5029986;28;20034;-59
2021/09/08 09:25:26;;;;;;;4.93;4.43;;;;;;;;;;5026870;28;20553;-59
2021/09/08 09:27:54;;;;;;;4.97;4.30;;;;;;;;;;5029018;28;20122;-59
2021/09/08 09:30:29;;;;;;;6.20;5.13;;;;;;;;;;5022980;28;20092;-58
2021/09/08 09:32:56;;;;;;;5.88;5.28;;;;;;;;;;5026341;28;20036;-59
2021/09/08 09:35:27;;;;;;;5.18;4.55;;;;;;;;;;5026901;28;20370;-59
2021/09/08 09:38:01;;;;;;;6.80;5.53;;;;;;;;;;5028127;28;20701;-59
2021/09/08 09:40:30;;;;;;;5.55;4.80;;;;;;;;;;5023786;28;20110;-59
2021/09/08 09:43:02;;;;;;;5.95;5.32;;;;;;;;;;5024522;28;20045;-59
2021/09/08 09:45:32;;;;;;;7.80;6.82;;;;;;;;;;5027405;28;20112;-58
2021/09/08 09:48:00;;;;;;;6.20;5.50;;;;;;;;;;5027782;28;20037;-59
2021/09/08 09:50:26;;;;;;;6.50;5.90;;;;;;;;;;5027557;28;20037;-58
2021/09/08 09:52:52;;;;;;;7.13;6.50;;;;;;;;;;5029076;28;20033;-59
2021/09/08 09:55:19;;;;;;;7.18;6.55;;;;;;;;;;5025817;28;20037;-58
2021/09/08 09:57:44;;;;;;;8.68;7.10;;;;;;;;;;5024788;28;20060;-59
2021/09/08 10:00:12;;;;;;;8.25;7.00;;;;;;;;;;5024784;28;20038;-59
2021/09/08 10:02:38;;;;;;;10.10;9.30;;;;;;;;;;5026354;28;20543;-58
2021/09/08 10:05:04;;;;;;;7.57;6.85;;;;;;;;;;5022186;28;20037;-58
2021/09/08 10:07:30;;;;;;;8.40;7.70;;;;;;;;;;5028135;28;20404;-58
2021/09/08 10:10:07;;;;;;;6.68;6.18;;;;;;;;;;5029445;28;20104;-59
2021/09/08 10:12:38;;;;;;;9.02;8.32;;;;;;;;;;5026841;28;20485;-59
2021/09/08 10:15:06;;;;;;;9.65;8.75;;;;;;;;;;5028058;28;20029;-59
2021/09/08 10:17:46;;;;;;;9.90;9.20;;;;;;;;;;5026212;28;20033;-59
2021/09/08 10:20:20;;;;;;;9.20;8.55;;;;;;;;;;5026483;28;20025;-59
2021/09/08 10:22:47;;;;;;;9.90;9.05;;;;;;;;;;5027348;28;20029;-59
2021/09/08 10:25:15;;;;;;;10.73;10.02;;;;;;;;;;5029006;28;20061;-59
2021/09/08 10:27:41;;;;;;;10.60;9.80;;;;;;;;;;5028183;28;20025;-59
2021/09/08 10:30:09;;;;;;;10.07;9.38;;;;;;;;;;5026901;28;20405;-59
2021/09/08 10:32:37;;;;;;;11.20;10.40;;;;;;;;;;5027908;28;20378;-59
2021/09/08 10:35:14;;;;;;;10.23;9.43;;;;;;;;;;5028383;28;20044;-59
2021/09/08 10:37:48;;;;;;;11.05;10.25;;;;;;;;;;5027832;28;20099;-59
2021/09/08 10:40:19;;;;;;;9.60;8.82;;;;;;;;;;5028020;28;20123;-59
2021/09/08 10:42:56;;;;;;;10.65;9.85;;;;;;;;;;5030587;28;20919;-59
2021/09/08 10:45:27;;;;;;;11.57;10.68;;;;;;;;;;5026515;28;20754;-59
2021/09/08 10:47:55;;;;;;;11.55;10.55;;;;;;;;;;5028455;28;20113;-58
2021/09/08 10:50:43;;;;;;;12.70;11.68;;;;;;;;;;5028830;28;20382;-59
2021/09/08 10:53:24;;;;;;;12.13;10.98;;;;;;;;;;5027697;28;20025;-59
2021/09/08 10:55:51;;;;;;;8.82;8.07;;;;;;;;;;5027875;28;20037;-59
2021/09/08 10:58:16;;;;;;;11.23;10.38;;;;;;;;;;5025722;28;20387;-58
2021/09/08 11:00:43;;;;;;;10.52;9.50;;;;;;;;;;5027841;28;20029;-58
2021/09/08 11:03:26;;;;;;;20.25;10.90;;;;;;;;;;5027016;28;20029;-58
2021/09/08 11:05:57;;;;;;;9.30;8.60;;;;;;;;;;5018398;28;20045;-57
2021/09/08 11:08:31;;;;;;;10.48;9.60;;;;;;;;;;5025974;28;20029;-58
2021/09/08 11:11:17;;;;;;;9.48;8.77;;;;;;;;;;5027666;28;20026;-58
2021/09/08 11:13:45;;;;;;;10.88;9.98;;;;;;;;;;5028613;28;20029;-57
2021/09/08 11:16:30;;;;;;;10.60;9.70;;;;;;;;;;5027188;28;20439;-58
2021/09/08 11:18:58;;;;;;;9.65;8.95;;;;;;;;;;5031676;28;20040;-57
2021/09/08 11:21:27;;;;;;;12.05;10.88;;;;;;;;;;5028115;28;20029;-58
2021/09/08 11:24:02;;;;;;;10.43;9.50;;;;;;;;;;5028754;28;20118;-58
2021/09/08 11:26:29;;;;;;;9.00;8.40;;;;;;;;;;5031437;28;20025;-57
2021/09/08 11:29:05;;;;;;;8.65;7.95;;;;;;;;;;5031622;28;20049;-58
2021/09/08 11:31:43;;;;;;;8.98;8.27;;;;;;;;;;5030740;28;20152;-58
2021/09/08 11:34:24;;;;;;;9.90;8.98;;;;;;;;;;5030123;28;20347;-59
2021/09/08 11:36:51;;;;;;;9.32;8.52;;;;;;;;;;5027897;28;20048;-58
2021/09/08 11:39:17;;;;;;;9.13;8.32;;;;;;;;;;5031476;28;20059;-58
2021/09/08 11:41:59;;;;;;;10.25;9.45;;;;;;;;;;5032014;28;20036;-58
2021/09/08 11:44:25;;;;;;;8.75;8.05;;;;;;;;;;5030573;28;20037;-58
2021/09/08 11:46:51;;;;;;;9.32;8.48;;;;;;;;;;5031553;28;20446;-58
2021/09/08 11:49:16;;;;;;;9.50;8.73;;;;;;;;;;5031617;28;20033;-58
2021/09/08 11:51:45;;;;;;;8.50;7.80;;;;;;;;;;5032112;28;20062;-58
2021/09/08 11:54:22;;;;;;;8.40;7.80;;;;;;;;;;5031535;28;20065;-58
2021/09/08 11:56:58;;;;;;;9.18;8.48;;;;;;;;;;5032164;28;20029;-58
2021/09/08 11:59:34;;;;;;;9.70;8.98;;;;;;;;;;5027689;28;20451;-58
2021/09/08 12:02:01;;;;;;;7.95;7.35;;;;;;;;;;5025195;28;20030;-58
2021/09/08 12:04:28;;;;;;;8.50;7.88;;;;;;;;;;5028646;28;20032;-58
2021/09/08 12:07:06;;;;;;;7.35;6.68;;;;;;;;;;5027638;28;20040;-58
2021/09/08 12:09:34;;;;;;;7.88;7.28;;;;;;;;;;5030064;28;20026;-59
2021/09/08 12:12:16;;;;;;;8.45;7.70;;;;;;;;;;5030658;28;20056;-60
2021/09/08 12:14:43;;;;;;;7.35;6.85;;;;;;;;;;5030667;28;20700;-58
2021/09/08 12:17:09;;;;;;;8.88;8.18;;;;;;;;;;5028149;28;20600;-58
2021/09/08 12:19:39;;;;;;;7.07;6.45;;;;;;;;;;5033871;28;20049;-58
2021/09/08 12:22:26;;;;;;;7.05;6.45;;;;;;;;;;5031120;28;20032;-58
2021/09/08 12:24:57;;;;;;;7.10;6.50;;;;;;;;;;5028041;28;20033;-57
2021/09/08 12:27:41;;;;;;;7.85;7.15;;;;;;;;;;5030006;28;20030;-58
2021/09/08 12:30:10;;;;;;;8.15;7.35;;;;;;;;;;5044828;28;20041;-58
2021/09/08 12:32:44;;;;;;;7.43;6.80;;;;;;;;;;5024871;28;20568;-58
2021/09/08 12:35:10;;;;;;;8.23;7.60;;;;;;;;;;5027257;28;20022;-59
2021/09/08 12:37:35;;;;;;;7.72;7.13;;;;;;;;;;5027345;28;20026;-58
2021/09/08 12:40:12;;;;;;;6.43;5.93;;;;;;;;;;5025527;28;20087;-59
2021/09/08 12:42:42;;;;;;;8.07;7.38;;;;;;;;;;5029220;28;20025;-59
2021/09/08 12:45:07;;;;;;;;;;;;;;;;;;5031707;28;20040;-59
2021/09/08 12:47:33;;;;;;;7.10;6.50;;;;;;;;;;5030892;28;19917;-59
2021/09/08 12:49:58;;;;;;;6.90;6.30;;;;;;;;;;5031466;28;20021;-60
2021/09/08 12:52:24;;;;;;;7.80;7.10;;;;;;;;;;5031387;28;20083;-59
2021/09/08 12:54:50;;;;;;;6.07;5.57;;;;;;;;;;5031583;28;20119;-59
2021/09/08 12:57:18;;;;;;;6.97;6.38;;;;;;;;;;5030961;28;20065;-58
2021/09/08 12:59:43;;;;;;;5.97;5.38;;;;;;;;;;5031238;28;20032;-59
2021/09/08 13:02:11;;;;;;;7.35;6.75;;;;;;;;;;5031344;28;20032;-59
2021/09/08 13:04:37;;;;;;;6.30;5.80;;;;;;;;;;5030726;28;20075;-59
2021/09/08 13:07:03;;;;;;;7.47;6.88;;;;;;;;;;5031143;28;20460;-59
2021/09/08 13:09:31;;;;;;;7.93;7.32;;;;;;;;;;5030768;28;20025;-59
2021/09/08 13:11:58;;;;;;;6.68;6.07;;;;;;;;;;5030539;28;20017;-58
2021/09/08 13:14:24;;;;;;;6.93;6.22;;;;;;;;;;5029593;28;20442;-59
2021/09/08 13:16:49;;;;;;;6.45;5.85;;;;;;;;;;5030946;28;20060;-59
2021/09/08 13:19:15;;;;;;;6.20;5.70;;;;;;;;;;5030872;28;20030;-58
2021/09/08 13:21:41;;;;;;;5.75;5.25;;;;;;;;;;5030474;28;20026;-58
2021/09/08 13:24:08;;;;;;;5.88;5.38;;;;;;;;;;5030241;28;20030;-58
2021/09/08 13:26:35;;;;;;;5.80;5.30;;;;;;;;;;5030755;28;20389;-59
2021/09/08 13:29:01;;;;;;;6.53;5.97;;;;;;;;;;5029264;28;20029;-59
2021/09/08 13:31:29;;;;;;;6.85;6.25;;;;;;;;;;5029490;28;20029;-58
2021/09/08 13:33:54;;;;;;;6.53;5.93;;;;;;;;;;5029223;28;20025;-58
2021/09/08 13:36:20;;;;;;;6.13;4.85;;;;;;;;;;5030358;28;20063;-58
2021/09/08 13:38:45;;;;;;;6.30;5.70;;;;;;;;;;5030978;28;20057;-58
2021/09/08 13:41:11;;;;;;;6.03;5.53;;;;;;;;;;5029297;28;20029;-58
2021/09/08 13:43:38;;;;;;;7.45;6.32;;;;;;;;;;5020705;28;20504;-58
2021/09/08 13:46:05;;;;;;;6.72;6.13;;;;;;;;;;5030126;28;20078;-58
2021/09/08 13:48:30;;;;;;;6.72;6.13;;;;;;;;;;5029084;28;20037;-58
2021/09/08 13:50:56;;;;;;;7.13;6.53;;;;;;;;;;5029836;28;20040;-58
2021/09/08 13:53:21;;;;;;;6.65;6.15;;;;;;;;;;5028988;28;20079;-58
2021/09/08 13:55:47;;;;;;;5.95;5.45;;;;;;;;;;5026246;28;20044;-59
2021/09/08 13:58:12;;;;;;;6.00;5.43;;;;;;;;;;5028133;28;20154;-58
2021/09/08 14:00:38;;;;;;;7.82;7.05;;;;;;;;;;5028456;28;20021;-58
2021/09/08 14:03:04;;;;;;;7.15;6.45;;;;;;;;;;5024273;28;20104;-58
2021/09/08 14:05:30;;;;;;;5.68;5.18;;;;;;;;;;5021461;28;20030;-58
2021/09/08 14:08:00;;;;;;;6.15;5.65;;;;;;;;;;5025155;28;20033;-59
2021/09/08 14:10:27;;;;;;;7.90;7.10;;;;;;;;;;5027377;28;20038;-58
2021/09/08 14:12:53;;;;;;;6.53;6.03;;;;;;;;;;5025531;28;20030;-58
2021/09/08 14:15:19;;;;;;;6.13;5.63;;;;;;;;;;5024036;28;20034;-58
2021/09/08 14:17:46;;;;;;;5.95;5.45;;;;;;;;;;5028382;28;20032;-58
2021/09/08 14:20:12;;;;;;;8.15;6.05;;;;;;;;;;5029311;28;20064;-58
2021/09/08 14:22:38;;;;;;;6.78;6.10;;;;;;;;;;5029221;28;20033;-58
2021/09/08 14:25:04;;;;;;;6.55;5.50;;;;;;;;;;5026985;28;20094;-58
2021/09/08 14:27:29;;;;;;;5.57;5.07;;;;;;;;;;5029289;28;20037;-58
2021/09/08 14:29:55;;;;;;;5.68;5.18;;;;;;;;;;5026486;28;20036;-58
2021/09/08 14:32:21;;;;;;;5.55;5.05;;;;;;;;;;5029458;28;20037;-58
2021/09/08 14:34:47;;;;;;;6.57;5.97;;;;;;;;;;5029404;28;20040;-59
2021/09/08 14:37:13;;;;;;;5.82;5.32;;;;;;;;;;5029383;28;20045;-58
2021/09/08 14:39:39;;;;;;;5.88;5.28;;;;;;;;;;5026711;28;20458;-58
2021/09/08 14:42:04;;;;;;;8.85;6.57;;;;;;;;;;5026718;28;20040;-59